createdAt,value
2023-01-15T00:02:25.785Z,99239.06
2023-01-15T00:05:11.569Z,99250.13
2023-01-15T00:07:57.007Z,99228.75
2023-01-15T00:10:42.326Z,99224.47
2023-01-15T00:13:29.052Z,99225.25
2023-01-15T00:16:20.522Z,99233.91
2023-01-15T00:19:08.821Z,99226.22
2023-01-15T00:21:54.319Z,99234.78
2023-01-15T00:24:58.278Z,99222.78
2023-01-15T00:27:50.080Z,99212.53
2023-01-15T00:30:45.492Z,99218.56
2023-01-15T00:33:31.250Z,99212.56
2023-01-15T00:36:16.705Z,99190.31
2023-01-15T00:39:02.060Z,99201.50
2023-01-15T00:41:47.835Z,99185.25
2023-01-15T00:44:34.155Z,99176.69
2023-01-15T00:47:19.672Z,99163.81
2023-01-15T00:50:10.518Z,99161.25
2023-01-15T00:52:56.125Z,99157.91
2023-01-15T00:55:41.549Z,99146.88
2023-01-15T00:58:27.014Z,99152.09
2023-01-15T01:01:12.377Z,99134.06
2023-01-15T01:03:58.346Z,99133.22
2023-01-15T01:06:43.749Z,99146.88
2023-01-15T01:09:30.376Z,99149.56
2023-01-15T01:12:15.948Z,99160.81
2023-01-15T01:15:01.484Z,99160.88
2023-01-15T01:17:47.186Z,99158.44
2023-01-15T01:20:33.313Z,99166.22
2023-01-15T01:23:19.774Z,99170.56
2023-01-15T01:26:05.553Z,99159.44
2023-01-15T01:28:53.113Z,99166.31
2023-01-15T01:31:38.744Z,99146.56
2023-01-15T01:34:24.389Z,99161.16
2023-01-15T01:37:09.600Z,99168.06
2023-01-15T01:39:55.573Z,99167.19
2023-01-15T01:42:41.041Z,99153.47
2023-01-15T01:45:33.566Z,99174.91
2023-01-15T01:48:25.039Z,99156.06
2023-01-15T01:51:11.035Z,99171.50
2023-01-15T01:53:58.277Z,99183.53
2023-01-15T01:56:44.308Z,99178.38
2023-01-15T01:59:30.145Z,99172.31
2023-01-15T02:02:18.512Z,99169.72
2023-01-15T02:05:07.756Z,99178.25
2023-01-15T02:07:53.406Z,99168.84
2023-01-15T02:10:38.939Z,99175.69
2023-01-15T02:13:32.844Z,99166.22
2023-01-15T02:16:27.536Z,99157.63
2023-01-15T02:19:30.470Z,99169.59
2023-01-15T02:22:18.644Z,99161.03
2023-01-15T02:25:31.755Z,99175.56
2023-01-15T02:28:48.769Z,99155.84
2023-01-15T02:31:38.891Z,99165.22
2023-01-15T02:34:29.382Z,99154.94
2023-01-15T02:37:22.693Z,99159.28
2023-01-15T02:40:11.137Z,99154.16
2023-01-15T02:42:58.895Z,99158.47
2023-01-15T02:45:49.197Z,99161.03
2023-01-15T02:48:38.801Z,99150.78
2023-01-15T02:51:28.795Z,99142.25
2023-01-15T02:54:16.677Z,99146.56
2023-01-15T02:57:05.198Z,99140.59
2023-01-15T02:59:54.703Z,99145.75
2023-01-15T03:02:45.478Z,99150.06
2023-01-15T03:05:40.446Z,99151.81
2023-01-15T03:08:27.904Z,99155.25
2023-01-15T03:11:16.021Z,99158.72
2023-01-15T03:14:21.932Z,99142.41
2023-01-15T03:17:39.701Z,99140.72
2023-01-15T03:20:28.019Z,99133.84
2023-01-15T03:23:17.021Z,99139.00
2023-01-15T03:26:03.083Z,99145.03
2023-01-15T03:28:49.832Z,99150.22
2023-01-15T03:31:36.787Z,99154.53
2023-01-15T03:34:24.456Z,99139.94
2023-01-15T03:37:10.393Z,99148.53
2023-01-15T03:39:58.398Z,99138.25
2023-01-15T03:43:14.262Z,99134.81
2023-01-15T03:46:06.299Z,99145.09
2023-01-15T03:49:07.484Z,99145.09
2023-01-15T03:52:16.684Z,99138.28
2023-01-15T03:55:08.282Z,99151.16
2023-01-15T03:58:17.708Z,99150.31
2023-01-15T04:01:11.000Z,99135.72
2023-01-15T04:03:59.791Z,99140.03
2023-01-15T04:06:47.992Z,99134.88
2023-01-15T04:09:39.183Z,99140.88
2023-01-15T04:12:28.203Z,99150.31
2023-01-15T04:15:15.619Z,99150.34
2023-01-15T04:18:02.227Z,99149.47
2023-01-15T04:20:49.855Z,99161.53
2023-01-15T04:23:35.429Z,99158.97
2023-01-15T04:26:20.855Z,99169.28
2023-01-15T04:29:06.378Z,99162.41
2023-01-15T04:31:57.416Z,99154.66
2023-01-15T04:34:42.605Z,99161.53
2023-01-15T04:37:28.093Z,99160.69
2023-01-15T04:40:33.081Z,99174.41
2023-01-15T04:43:37.370Z,99161.53
2023-01-15T04:46:24.924Z,99146.09
2023-01-15T04:49:13.540Z,99160.69
2023-01-15T04:51:59.140Z,99159.81
2023-01-15T04:54:44.398Z,99165.84
2023-01-15T04:57:29.869Z,99174.41
2023-01-15T05:00:16.236Z,99168.41
2023-01-15T05:03:01.878Z,99175.28
2023-01-15T05:05:47.121Z,99177.00
2023-01-15T05:08:32.920Z,99167.53
2023-01-15T05:11:18.534Z,99167.53
2023-01-15T05:14:04.261Z,99171.00
2023-01-15T05:16:49.627Z,99177.00
2023-01-15T05:19:34.914Z,99179.56
2023-01-15T05:22:20.302Z,99186.44
2023-01-15T05:25:06.306Z,99193.31
2023-01-15T05:27:51.556Z,99190.72
2023-01-15T05:30:37.004Z,99197.59
2023-01-15T05:33:22.262Z,99191.59
2023-01-15T05:36:13.294Z,99189.03
2023-01-15T05:39:02.076Z,99197.59
2023-01-15T05:41:51.434Z,99188.16
2023-01-15T05:44:37.160Z,99195.03
2023-01-15T05:47:22.542Z,99194.19
2023-01-15T05:50:08.701Z,99192.47
2023-01-15T05:52:54.304Z,99193.34
2023-01-15T05:55:39.767Z,99196.78
2023-01-15T05:58:25.122Z,99201.94
2023-01-15T06:01:11.353Z,99208.81
2023-01-15T06:04:01.469Z,99211.41
2023-01-15T06:06:48.509Z,99213.13
2023-01-15T06:09:33.919Z,99212.25
2023-01-15T06:12:19.283Z,99221.69
2023-01-15T06:15:05.025Z,99239.72
2023-01-15T06:17:51.180Z,99232.00
2023-01-15T06:20:37.829Z,99232.00
2023-01-15T06:23:23.181Z,99232.03
2023-01-15T06:26:16.005Z,99250.94
2023-01-15T06:29:01.676Z,99249.22
2023-01-15T06:31:47.756Z,99250.94
2023-01-15T06:34:33.157Z,99264.66
2023-01-15T06:37:18.583Z,99264.66
2023-01-15T06:40:03.880Z,99273.22
2023-01-15T06:43:09.128Z,99280.03
2023-01-15T06:46:13.776Z,99298.91
2023-01-15T06:48:59.284Z,99307.50
2023-01-15T06:51:44.544Z,99313.47
2023-01-15T06:54:30.527Z,99318.63
2023-01-15T06:57:16.394Z,99313.47
2023-01-15T07:00:01.929Z,99321.19
2023-01-15T07:02:47.153Z,99314.28
2023-01-15T07:05:32.527Z,99325.41
2023-01-15T07:08:17.993Z,99342.59
2023-01-15T07:11:05.384Z,99350.31
2023-01-15T07:13:50.928Z,99341.69
2023-01-15T07:16:37.806Z,99351.97
2023-01-15T07:19:23.295Z,99351.94
2023-01-15T07:22:10.417Z,99369.06
2023-01-15T07:24:56.848Z,99370.81
2023-01-15T07:27:42.802Z,99376.78
2023-01-15T07:30:28.349Z,99382.84
2023-01-15T07:33:13.909Z,99387.97
2023-01-15T07:36:03.288Z,99388.81
2023-01-15T07:38:49.070Z,99392.25
2023-01-15T07:41:53.296Z,99398.28
2023-01-15T07:44:57.776Z,99399.13
2023-01-15T07:48:01.810Z,99406.84
2023-01-15T07:50:47.355Z,99404.28
2023-01-15T07:53:32.819Z,99409.47
2023-01-15T07:56:18.159Z,99414.63
2023-01-15T07:59:03.845Z,99417.19
2023-01-15T08:01:49.259Z,99420.66
2023-01-15T08:04:35.404Z,99424.06
2023-01-15T08:07:21.075Z,99424.06
2023-01-15T08:10:07.096Z,99427.50
2023-01-15T08:13:11.084Z,99430.94
2023-01-15T08:15:56.689Z,99433.53
2023-01-15T08:18:42.382Z,99444.69
2023-01-15T08:21:27.738Z,99442.09
2023-01-15T08:24:13.069Z,99461.88
2023-01-15T08:26:58.452Z,99461.88
2023-01-15T08:29:43.908Z,99467.84
2023-01-15T08:32:29.232Z,99457.56
2023-01-15T08:35:14.976Z,99468.69
2023-01-15T08:38:05.987Z,99473.00
2023-01-15T08:41:03.670Z,99460.13
2023-01-15T08:43:49.119Z,99467.00
2023-01-15T08:46:34.280Z,99474.72
2023-01-15T08:49:21.207Z,99470.41
2023-01-15T08:52:07.107Z,99478.13
2023-01-15T08:54:52.433Z,99475.56
2023-01-15T08:57:38.702Z,99491.84
2023-01-15T09:00:24.673Z,99499.59
2023-01-15T09:03:10.517Z,99503.09
2023-01-15T09:06:02.128Z,99503.13
2023-01-15T09:08:47.750Z,99502.25
2023-01-15T09:11:33.348Z,99507.41
2023-01-15T09:14:57.479Z,99521.16
2023-01-15T09:17:24.301Z,99518.59
2023-01-15T09:20:13.265Z,99522.03
2023-01-15T09:22:58.742Z,99534.94
2023-01-15T09:26:06.289Z,99532.38
2023-01-15T09:28:51.779Z,99525.50
2023-01-15T09:31:37.130Z,99520.34
2023-01-15T09:34:23.077Z,99529.81
2023-01-15T09:37:08.597Z,99522.97
2023-01-15T09:39:53.973Z,99532.44
2023-01-15T09:42:58.288Z,99541.09
2023-01-15T09:45:57.178Z,99547.97
2023-01-15T09:49:04.448Z,99549.75
2023-01-15T09:51:56.617Z,99564.41
2023-01-15T09:54:54.721Z,99558.44
2023-01-15T09:57:42.317Z,99558.47
2023-01-15T10:00:33.827Z,99564.53
2023-01-15T10:03:19.220Z,99572.28
2023-01-15T10:06:21.894Z,99572.31
2023-01-15T10:09:15.154Z,99562.84
2023-01-15T10:12:31.322Z,99563.78
2023-01-15T10:15:24.681Z,99563.81
2023-01-15T10:18:22.879Z,99560.44
2023-01-15T10:21:35.948Z,99563.03
2023-01-15T10:24:26.536Z,99565.69
2023-01-15T10:27:20.293Z,99557.13
2023-01-15T10:30:14.005Z,99567.44
2023-01-15T10:33:05.149Z,99569.16
2023-01-15T10:36:09.743Z,99564.91
2023-01-15T10:39:15.036Z,99566.63
2023-01-15T10:42:37.853Z,99570.06
2023-01-15T10:45:27.672Z,99568.34
2023-01-15T10:48:27.159Z,99570.06
2023-01-15T10:51:18.520Z,99565.75
2023-01-15T10:54:21.398Z,99560.63
2023-01-15T10:57:30.839Z,99568.44
2023-01-15T11:00:17.234Z,99581.38
2023-01-15T11:03:08.802Z,99582.28
2023-01-15T11:05:54.298Z,99575.41
2023-01-15T11:09:07.821Z,99580.56
2023-01-15T11:11:59.607Z,99584.06
2023-01-15T11:15:05.132Z,99578.94
2023-01-15T11:18:09.369Z,99581.53
2023-01-15T11:20:55.084Z,99568.63
2023-01-15T11:23:40.560Z,99571.22
2023-01-15T11:26:29.808Z,99570.34
2023-01-15T11:29:44.131Z,99572.97
2023-01-15T11:32:35.631Z,99566.94
2023-01-15T11:35:20.863Z,99570.38
2023-01-15T11:38:13.101Z,99568.63
2023-01-15T11:41:04.950Z,99567.78
2023-01-15T11:44:18.573Z,99569.53
2023-01-15T11:47:32.555Z,99562.63
2023-01-15T11:50:37.802Z,99552.31
2023-01-15T11:53:27.827Z,99547.19
2023-01-15T11:56:20.344Z,99555.81
2023-01-15T11:59:17.620Z,99551.50
2023-01-15T12:02:25.901Z,99549.81
2023-01-15T12:05:34.291Z,99556.72
2023-01-15T12:08:37.446Z,99553.25
2023-01-15T12:11:34.819Z,99561.00
2023-01-15T12:14:32.525Z,99546.38
2023-01-15T12:17:46.105Z,99551.50
2023-01-15T12:20:40.732Z,99554.91
2023-01-15T12:23:43.810Z,99556.66
2023-01-15T12:26:34.203Z,99552.34
2023-01-15T12:29:27.352Z,99540.31
2023-01-15T12:32:18.640Z,99535.16
2023-01-15T12:35:16.018Z,99526.59
2023-01-15T12:38:26.443Z,99525.75
2023-01-15T12:41:26.409Z,99529.19
2023-01-15T12:44:30.305Z,99531.81
2023-01-15T12:47:22.030Z,99513.69
2023-01-15T12:50:45.297Z,99512.00
2023-01-15T12:53:37.460Z,99516.28
2023-01-15T12:56:25.844Z,99521.44
2023-01-15T12:59:24.488Z,99514.56
2023-01-15T13:02:36.256Z,99512.00
2023-01-15T13:05:23.293Z,99512.84
2023-01-15T13:08:47.304Z,99504.25
2023-01-15T13:11:33.285Z,99509.44
2023-01-15T13:14:21.776Z,99504.25
2023-01-15T13:17:24.282Z,99510.31
2023-01-15T13:20:24.919Z,99510.31
2023-01-15T13:23:31.865Z,99509.44
2023-01-15T13:26:55.027Z,99506.84
2023-01-15T13:29:52.096Z,99498.25
2023-01-15T13:32:48.719Z,99501.69
2023-01-15T13:35:41.138Z,99499.97
2023-01-15T13:38:31.234Z,99492.25
2023-01-15T13:41:40.938Z,99481.91
2023-01-15T13:44:36.199Z,99482.75
2023-01-15T13:47:29.017Z,99477.59
2023-01-15T13:50:37.287Z,99470.69
2023-01-15T13:53:38.610Z,99461.25
2023-01-15T13:56:30.378Z,99456.06
2023-01-15T13:59:41.238Z,99450.91
2023-01-15T14:02:27.965Z,99448.31
2023-01-15T14:05:33.888Z,99439.72
2023-01-15T14:08:26.803Z,99427.69
2023-01-15T14:11:30.830Z,99429.41
2023-01-15T14:14:25.751Z,99415.63
2023-01-15T14:17:32.213Z,99416.47
2023-01-15T14:20:26.916Z,99421.63
2023-01-15T14:23:21.731Z,99404.44
2023-01-15T14:26:10.235Z,99401.84
2023-01-15T14:29:22.971Z,99400.09
2023-01-15T14:32:24.316Z,99399.25
2023-01-15T14:35:18.714Z,99384.59
2023-01-15T14:38:07.165Z,99384.59
2023-01-15T14:41:02.290Z,99376.88
2023-01-15T14:43:49.698Z,99368.25
2023-01-15T14:46:38.811Z,99369.09
2023-01-15T14:49:32.400Z,99364.78
2023-01-15T14:52:23.739Z,99363.94
2023-01-15T14:55:12.746Z,99354.47
2023-01-15T14:58:05.744Z,99358.78
2023-01-15T15:00:55.797Z,99359.66
2023-01-15T15:04:07.249Z,99356.19
2023-01-15T15:07:27.302Z,99352.72
2023-01-15T15:10:33.940Z,99345.84
2023-01-15T15:13:32.837Z,99349.28
2023-01-15T15:16:27.410Z,99335.53
2023-01-15T15:19:27.026Z,99338.09
2023-01-15T15:22:16.954Z,99333.78
2023-01-15T15:25:11.036Z,99325.19
2023-01-15T15:28:09.619Z,99324.31
2023-01-15T15:30:57.389Z,99318.28
2023-01-15T15:33:42.955Z,99317.44
2023-01-15T15:36:32.151Z,99324.31
2023-01-15T15:39:29.062Z,99323.44
2023-01-15T15:42:47.673Z,99327.75
2023-01-15T15:45:52.205Z,99326.88
2023-01-15T15:48:45.166Z,99331.19
2023-01-15T15:51:35.400Z,99312.22
2023-01-15T15:54:23.961Z,99320.84
2023-01-15T15:57:17.837Z,99319.97
2023-01-15T16:00:04.526Z,99311.38
2023-01-15T16:02:51.662Z,99308.78
2023-01-15T16:05:36.885Z,99307.91
2023-01-15T16:08:22.427Z,99304.47
2023-01-15T16:11:12.003Z,99304.47
2023-01-15T16:14:00.343Z,99302.75
2023-01-15T16:16:47.010Z,99295.84
2023-01-15T16:19:32.660Z,99295.84
2023-01-15T16:22:18.923Z,99289.81
2023-01-15T16:25:05.476Z,99286.38
2023-01-15T16:27:51.819Z,99281.22
2023-01-15T16:30:37.579Z,99281.22
2023-01-15T16:33:23.738Z,99278.63
2023-01-15T16:36:09.418Z,99279.47
2023-01-15T16:38:55.617Z,99283.75
2023-01-15T16:41:42.597Z,99286.31
2023-01-15T16:44:50.309Z,99288.91
2023-01-15T16:47:36.812Z,99282.03
2023-01-15T16:50:22.435Z,99276.88
2023-01-15T16:53:36.549Z,99279.47
2023-01-15T16:56:45.041Z,99272.59
2023-01-15T16:59:30.512Z,99274.31
2023-01-15T17:02:22.067Z,99265.69
2023-01-15T17:05:17.558Z,99266.50
2023-01-15T17:08:03.342Z,99263.03
2023-01-15T17:10:54.199Z,99254.44
2023-01-15T17:13:40.914Z,99250.13
2023-01-15T17:16:26.803Z,99245.81
2023-01-15T17:19:12.397Z,99236.41
2023-01-15T17:21:57.796Z,99234.66
2023-01-15T17:24:48.177Z,99236.41
2023-01-15T17:27:33.583Z,99232.94
2023-01-15T17:30:19.435Z,99225.22
2023-01-15T17:33:06.948Z,99214.06
2023-01-15T17:35:53.975Z,99217.47
2023-01-15T17:38:39.368Z,99212.34
2023-01-15T17:41:24.971Z,99202.91
2023-01-15T17:44:14.852Z,99202.91
2023-01-15T17:47:00.495Z,99192.59
2023-01-15T17:49:45.850Z,99186.59
2023-01-15T17:52:31.211Z,99177.13
2023-01-15T17:55:39.195Z,99170.25
2023-01-15T17:58:43.306Z,99170.25
2023-01-15T18:01:52.027Z,99165.94
2023-01-15T18:05:08.787Z,99164.25
2023-01-15T18:07:56.694Z,99160.78
2023-01-15T18:10:42.421Z,99154.78
2023-01-15T18:13:27.857Z,99151.31
2023-01-15T18:16:13.824Z,99142.75
2023-01-15T18:18:59.196Z,99137.56
2023-01-15T18:21:44.486Z,99140.16
2023-01-15T18:24:29.992Z,99123.81
2023-01-15T18:27:15.314Z,99125.53
2023-01-15T18:30:00.742Z,99117.81
2023-01-15T18:32:46.140Z,99117.81
2023-01-15T18:35:31.918Z,99109.19
2023-01-15T18:38:17.640Z,99100.63
2023-01-15T18:41:34.620Z,99097.16
2023-01-15T18:44:40.279Z,99088.53
2023-01-15T18:47:26.999Z,99090.25
2023-01-15T18:50:12.344Z,99094.50
2023-01-15T18:52:58.095Z,99087.69
2023-01-15T18:55:43.961Z,99085.97
2023-01-15T18:58:29.534Z,99086.84
2023-01-15T19:01:14.923Z,99088.56
2023-01-15T19:04:00.674Z,99087.69
2023-01-15T19:06:47.649Z,99085.13
2023-01-15T19:09:34.229Z,99077.44
2023-01-15T19:12:20.171Z,99070.56
2023-01-15T19:15:25.834Z,99062.81
2023-01-15T19:18:29.840Z,99058.53
2023-01-15T19:21:17.895Z,99049.94
2023-01-15T19:24:03.382Z,99053.31
2023-01-15T19:26:49.114Z,99044.72
2023-01-15T19:29:34.339Z,99044.69
2023-01-15T19:32:19.888Z,99036.09
2023-01-15T19:35:05.791Z,99035.22
2023-01-15T19:37:53.353Z,99040.34
2023-01-15T19:40:42.091Z,99038.63
2023-01-15T19:43:46.055Z,99042.09
2023-01-15T19:46:50.391Z,99050.66
2023-01-15T19:49:55.932Z,99052.41
2023-01-15T19:52:41.419Z,99049.84
2023-01-15T19:55:29.703Z,99054.16
2023-01-15T19:58:15.864Z,99044.75
2023-01-15T20:01:01.904Z,99047.31
2023-01-15T20:03:47.617Z,99036.19
2023-01-15T20:06:32.950Z,99038.75
2023-01-15T20:09:18.130Z,99043.06
2023-01-15T20:12:22.068Z,99039.59
2023-01-15T20:15:08.473Z,99039.63
2023-01-15T20:17:54.176Z,99041.34
2023-01-15T20:20:39.990Z,99037.06
2023-01-15T20:23:25.589Z,99031.03
2023-01-15T20:26:13.409Z,99026.75
2023-01-15T20:28:59.064Z,99031.03
2023-01-15T20:31:44.526Z,99028.50
2023-01-15T20:34:36.315Z,99023.34
2023-01-15T20:37:23.303Z,99027.59
2023-01-15T20:40:09.620Z,99025.03
2023-01-15T20:43:13.641Z,99029.34
2023-01-15T20:46:15.864Z,99027.59
2023-01-15T20:49:19.859Z,99015.56
2023-01-15T20:52:05.537Z,99013.00
2023-01-15T20:54:51.092Z,99008.72
2023-01-15T20:57:38.506Z,99010.44
2023-01-15T21:00:24.521Z,99007.84
2023-01-15T21:03:11.923Z,99011.28
2023-01-15T21:05:58.758Z,99007.81
2023-01-15T21:08:46.043Z,99006.13
2023-01-15T21:11:31.739Z,99005.25
2023-01-15T21:14:17.183Z,99011.28
2023-01-15T21:17:02.517Z,99009.53
2023-01-15T21:19:47.937Z,99016.41
2023-01-15T21:22:33.219Z,99013.84
2023-01-15T21:25:18.800Z,99008.69
2023-01-15T21:28:05.017Z,99004.38
2023-01-15T21:30:50.387Z,99007.81
2023-01-15T21:33:36.600Z,98998.38
2023-01-15T21:36:22.799Z,99001.81
2023-01-15T21:39:11.949Z,98998.34
2023-01-15T21:42:15.865Z,98993.19
2023-01-15T21:45:01.585Z,98983.75
2023-01-15T21:47:47.231Z,98981.16
2023-01-15T21:50:32.457Z,98973.41
2023-01-15T21:53:17.809Z,98976.78
2023-01-15T21:56:03.387Z,98977.59
2023-01-15T21:58:49.169Z,98982.66
2023-01-15T22:01:34.475Z,98979.22
2023-01-15T22:04:19.855Z,98984.31
2023-01-15T22:07:05.218Z,98989.41
2023-01-15T22:09:51.018Z,98995.38
2023-01-15T22:12:42.062Z,98992.78
2023-01-15T22:15:28.244Z,98982.47
2023-01-15T22:18:13.704Z,98985.88
2023-01-15T22:21:05.898Z,98984.97
2023-01-15T22:23:51.496Z,98984.03
2023-01-15T22:26:37.991Z,98984.03
2023-01-15T22:29:26.360Z,98982.31
2023-01-15T22:32:14.363Z,98981.44
2023-01-15T22:35:00.115Z,98973.69
2023-01-15T22:37:45.504Z,98978.84
2023-01-15T22:40:30.805Z,98976.25
2023-01-15T22:43:16.295Z,98989.06
2023-01-15T22:46:12.912Z,98980.47
2023-01-15T22:48:58.418Z,98981.28
2023-01-15T22:51:43.988Z,98976.13
2023-01-15T22:54:29.624Z,98976.06
2023-01-15T22:57:16.065Z,98973.47
2023-01-15T23:00:02.386Z,98973.38
2023-01-15T23:03:04.909Z,98970.78
2023-01-15T23:05:50.505Z,98964.78
2023-01-15T23:08:36.276Z,98968.19
2023-01-15T23:11:21.898Z,98972.38
2023-01-15T23:14:08.762Z,98986.97
2023-01-15T23:16:54.391Z,98972.56
2023-01-15T23:19:39.666Z,98983.00
2023-01-15T23:22:25.106Z,98981.38
2023-01-15T23:25:10.468Z,98972.00
2023-01-15T23:27:55.873Z,98985.75
2023-01-15T23:30:41.215Z,98983.22
2023-01-15T23:33:26.899Z,98982.38
2023-01-15T23:36:12.557Z,98992.66
2023-01-15T23:38:57.850Z,98987.56
2023-01-15T23:42:01.716Z,98989.28
2023-01-15T23:45:05.762Z,98995.28
2023-01-15T23:47:51.255Z,98996.13
2023-01-15T23:50:36.753Z,98995.28
2023-01-15T23:53:22.136Z,98992.69
2023-01-15T23:56:08.047Z,98997.84
2023-01-15T23:58:53.535Z,98992.69
